createdAt,value
2022-08-17T00:01:27.611Z,88.98
2022-08-17T00:03:54.709Z,89.12
2022-08-17T00:06:25.831Z,89.43
2022-08-17T00:08:58.760Z,89.50
2022-08-17T00:11:32.568Z,89.45
2022-08-17T00:14:09.376Z,89.54
2022-08-17T00:16:56.169Z,89.60
2022-08-17T00:19:25.298Z,89.45
2022-08-17T00:22:33.170Z,89.57
2022-08-17T00:24:42.409Z,89.44
2022-08-17T00:27:08.818Z,89.34
2022-08-17T00:29:35.221Z,89.17
2022-08-17T00:33:11.652Z,89.04
2022-08-17T00:34:48.971Z,89.52
2022-08-17T00:37:15.515Z,89.59
2022-08-17T00:39:42.011Z,89.78
2022-08-17T00:42:19.766Z,90.64
2022-08-17T00:44:46.614Z,90.57
2022-08-17T00:47:13.844Z,90.94
2022-08-17T00:49:40.338Z,90.72
2022-08-17T00:52:16.499Z,91.03
2022-08-17T00:54:46.911Z,90.89
2022-08-17T00:57:18.853Z,90.88
2022-08-17T00:59:56.015Z,90.88
2022-08-17T01:02:34.947Z,91.05
2022-08-17T01:05:13.828Z,91.41
2022-08-17T01:07:41.324Z,91.44
2022-08-17T01:10:59.778Z,91.50
2022-08-17T01:12:58.007Z,91.46
2022-08-17T01:15:24.486Z,91.29
2022-08-17T01:17:50.961Z,91.30
2022-08-17T01:20:17.434Z,91.44
2022-08-17T01:22:43.948Z,91.96
2022-08-17T01:25:12.592Z,91.69
2022-08-17T01:27:39.137Z,91.93
2022-08-17T01:30:57.314Z,92.14
2022-08-17T01:32:56.532Z,92.53
2022-08-17T01:35:22.896Z,92.35
2022-08-17T01:37:49.563Z,92.01
2022-08-17T01:40:25.483Z,91.89
2022-08-17T01:42:56.588Z,91.88
2022-08-17T01:45:28.537Z,91.90
2022-08-17T01:47:55.353Z,92.11
2022-08-17T01:50:26.447Z,92.19
2022-08-17T01:52:58.188Z,92.25
2022-08-17T01:55:33.463Z,92.59
2022-08-17T01:58:00.017Z,92.51
2022-08-17T02:01:00.250Z,92.63
2022-08-17T02:03:15.762Z,92.74
2022-08-17T02:05:42.136Z,92.61
2022-08-17T02:08:08.581Z,92.52
2022-08-17T02:10:47.754Z,92.76
2022-08-17T02:13:14.815Z,92.54
2022-08-17T02:15:41.662Z,92.55
2022-08-17T02:18:09.804Z,92.61
2022-08-17T02:20:41.951Z,93.20
2022-08-17T02:23:11.838Z,93.16
2022-08-17T02:25:39.789Z,93.15
2022-08-17T02:28:06.319Z,93.21
2022-08-17T02:30:58.967Z,93.36
2022-08-17T02:33:19.921Z,93.73
2022-08-17T02:35:46.890Z,93.62
2022-08-17T02:38:13.308Z,93.68
2022-08-17T02:40:40.471Z,93.75
2022-08-17T02:43:08.785Z,93.90
2022-08-17T02:45:36.230Z,93.84
2022-08-17T02:48:03.126Z,93.79
2022-08-17T02:50:29.556Z,93.58
2022-08-17T02:53:02.274Z,93.58
2022-08-17T02:55:35.110Z,93.53
2022-08-17T02:58:03.554Z,93.53
2022-08-17T03:00:35.797Z,93.56
2022-08-17T03:03:05.871Z,93.75
2022-08-17T03:05:34.279Z,93.81
2022-08-17T03:08:00.692Z,93.69
2022-08-17T03:10:28.076Z,93.76
2022-08-17T03:12:54.563Z,93.65
2022-08-17T03:15:24.961Z,93.56
2022-08-17T03:17:52.340Z,93.47
2022-08-17T03:20:20.030Z,93.57
2022-08-17T03:22:53.646Z,93.51
2022-08-17T03:25:44.212Z,94.04
2022-08-17T03:28:12.013Z,94.55
2022-08-17T03:30:39.885Z,94.48
2022-08-17T03:33:09.890Z,94.29
2022-08-17T03:35:37.908Z,94.15
2022-08-17T03:38:04.998Z,93.87
2022-08-17T03:40:34.392Z,93.83
2022-08-17T03:43:20.799Z,93.99
2022-08-17T03:46:05.884Z,93.96
2022-08-17T03:48:56.101Z,93.88
2022-08-17T03:51:42.742Z,93.77
2022-08-17T03:54:29.591Z,93.84
2022-08-17T03:57:03.643Z,93.89
2022-08-17T03:59:31.370Z,93.95
2022-08-17T04:02:03.668Z,94.12
2022-08-17T04:04:30.435Z,94.07
2022-08-17T04:06:56.845Z,94.00
2022-08-17T04:09:23.269Z,94.07
2022-08-17T04:11:49.717Z,94.00
2022-08-17T04:14:16.234Z,94.05
2022-08-17T04:16:42.775Z,94.02
2022-08-17T04:19:09.162Z,94.13
2022-08-17T04:21:35.805Z,94.13
2022-08-17T04:24:02.785Z,94.15
2022-08-17T04:26:53.484Z,94.10
2022-08-17T04:29:17.104Z,94.11
2022-08-17T04:31:44.061Z,94.25
2022-08-17T04:34:11.726Z,94.22
2022-08-17T04:36:38.202Z,94.19
2022-08-17T04:39:04.664Z,94.08
2022-08-17T04:41:49.649Z,93.89
2022-08-17T04:44:37.125Z,93.75
2022-08-17T04:47:02.872Z,93.51
2022-08-17T04:49:29.419Z,93.52
2022-08-17T04:51:59.032Z,93.54
2022-08-17T04:54:29.084Z,93.65
2022-08-17T04:56:55.475Z,93.76
2022-08-17T04:59:22.562Z,94.16
2022-08-17T05:01:51.539Z,93.90
2022-08-17T05:04:33.789Z,93.83
2022-08-17T05:07:01.901Z,93.64
2022-08-17T05:09:28.954Z,93.43
2022-08-17T05:11:55.378Z,93.28
2022-08-17T05:14:22.759Z,93.05
2022-08-17T05:16:59.674Z,92.97
2022-08-17T05:19:27.534Z,92.75
2022-08-17T05:21:53.995Z,92.28
2022-08-17T05:24:39.852Z,92.09
2022-08-17T05:27:06.957Z,91.83
2022-08-17T05:29:34.291Z,92.03
2022-08-17T05:32:37.412Z,92.17
2022-08-17T05:35:00.719Z,92.38
2022-08-17T05:37:27.274Z,92.27
2022-08-17T05:39:54.213Z,92.31
2022-08-17T05:42:20.859Z,92.12
2022-08-17T05:44:47.314Z,91.84
2022-08-17T05:47:13.795Z,90.91
2022-08-17T05:49:40.244Z,90.27
2022-08-17T05:52:20.429Z,87.68
2022-08-17T05:55:30.198Z,78.77
2022-08-17T05:58:02.589Z,69.36
2022-08-17T06:00:47.896Z,66.45
2022-08-17T06:03:33.109Z,62.85
2022-08-17T06:06:39.751Z,60.24
2022-08-17T06:09:12.110Z,55.94
2022-08-17T06:11:38.466Z,54.75
2022-08-17T06:14:07.848Z,54.27
2022-08-17T06:16:38.727Z,56.47
2022-08-17T06:19:25.700Z,55.86
2022-08-17T06:21:54.805Z,58.33
2022-08-17T06:24:39.293Z,54.99
2022-08-17T06:27:19.571Z,55.07
2022-08-17T06:30:20.194Z,52.26
2022-08-17T06:32:50.190Z,53.19
2022-08-17T06:35:30.050Z,53.09
2022-08-17T06:38:06.277Z,49.77
2022-08-17T06:40:45.486Z,48.31
2022-08-17T06:43:26.119Z,47.84
2022-08-17T06:46:12.753Z,45.48
2022-08-17T06:49:17.024Z,45.77
2022-08-17T06:51:50.509Z,45.00
2022-08-17T06:54:27.136Z,45.80
2022-08-17T06:56:59.375Z,45.57
2022-08-17T06:59:55.134Z,44.05
2022-08-17T07:02:52.458Z,44.20
2022-08-17T07:05:32.629Z,44.17
2022-08-17T07:08:16.594Z,38.85
2022-08-17T07:10:57.441Z,39.08
2022-08-17T07:13:30.288Z,35.65
2022-08-17T07:16:14.997Z,38.18
2022-08-17T07:18:41.881Z,39.63
2022-08-17T07:21:19.106Z,37.01
2022-08-17T07:24:06.644Z,40.60
2022-08-17T07:26:33.261Z,38.93
2022-08-17T07:29:00.606Z,39.39
2022-08-17T07:31:30.506Z,36.95
2022-08-17T07:34:14.384Z,36.87
2022-08-17T07:36:43.548Z,38.90
2022-08-17T07:39:10.896Z,36.61
2022-08-17T07:41:57.585Z,36.07
2022-08-17T07:44:26.426Z,37.09
2022-08-17T07:47:12.684Z,34.92
2022-08-17T07:49:42.735Z,32.52
2022-08-17T07:52:50.917Z,35.31
2022-08-17T07:55:29.363Z,38.07
2022-08-17T07:57:58.428Z,35.55
2022-08-17T08:00:32.501Z,35.03
2022-08-17T08:03:11.219Z,35.20
2022-08-17T08:05:51.375Z,33.10
2022-08-17T08:08:52.801Z,32.35
2022-08-17T08:11:35.225Z,30.25
2022-08-17T08:14:28.266Z,30.77
2022-08-17T08:16:59.532Z,30.57
2022-08-17T08:19:28.140Z,28.38
2022-08-17T08:22:27.191Z,29.84
2022-08-17T08:25:32.741Z,30.02
2022-08-17T08:28:14.852Z,31.80
2022-08-17T08:30:47.706Z,30.88
2022-08-17T08:33:45.560Z,29.59
2022-08-17T08:37:13.075Z,28.53
2022-08-17T08:39:23.259Z,28.96
2022-08-17T08:41:55.006Z,27.15
2022-08-17T08:45:04.145Z,28.44
2022-08-17T08:47:53.687Z,28.80
2022-08-17T08:50:37.280Z,26.74
2022-08-17T08:53:09.300Z,28.32
2022-08-17T08:55:54.697Z,26.18
2022-08-17T08:58:41.331Z,26.60
2022-08-17T09:01:20.941Z,26.73
2022-08-17T09:04:24.782Z,25.95
2022-08-17T09:07:08.527Z,26.38
2022-08-17T09:09:43.079Z,26.25
2022-08-17T09:12:36.334Z,26.27
2022-08-17T09:15:20.184Z,26.72
2022-08-17T09:19:00.512Z,25.00
2022-08-17T09:20:59.952Z,24.95
2022-08-17T09:23:26.559Z,25.41
2022-08-17T09:26:22.382Z,25.21
2022-08-17T09:28:55.748Z,22.81
2022-08-17T09:31:32.700Z,24.45
2022-08-17T09:34:03.479Z,24.12
2022-08-17T09:36:36.199Z,24.61
2022-08-17T09:39:13.290Z,24.65
2022-08-17T09:41:57.799Z,24.56
2022-08-17T09:44:47.097Z,26.20
2022-08-17T09:47:28.395Z,22.83
2022-08-17T09:50:05.892Z,25.33
2022-08-17T09:52:32.476Z,22.78
2022-08-17T09:55:00.992Z,24.54
2022-08-17T09:58:07.865Z,23.63
2022-08-17T10:00:36.845Z,23.76
2022-08-17T10:03:29.931Z,25.10
2022-08-17T10:06:22.172Z,29.28
2022-08-17T10:09:08.542Z,30.55
2022-08-17T10:12:09.280Z,25.85
2022-08-17T10:14:44.145Z,24.78
2022-08-17T10:17:32.415Z,27.56
2022-08-17T10:20:20.600Z,25.36
2022-08-17T10:23:14.733Z,25.22
2022-08-17T10:26:05.512Z,26.29
2022-08-17T10:28:49.542Z,26.44
2022-08-17T10:31:36.397Z,24.00
2022-08-17T10:34:27.073Z,24.80
2022-08-17T10:36:58.121Z,23.32
2022-08-17T10:39:52.471Z,26.14
2022-08-17T10:42:35.256Z,26.35
2022-08-17T10:45:06.828Z,26.08
2022-08-17T10:48:06.060Z,25.33
2022-08-17T10:51:00.432Z,22.93
2022-08-17T10:53:32.937Z,24.13
2022-08-17T10:56:49.511Z,25.41
2022-08-17T10:59:42.140Z,25.73
2022-08-17T11:02:25.275Z,24.41
2022-08-17T11:05:00.857Z,25.21
2022-08-17T11:07:51.187Z,26.92
2022-08-17T11:10:42.663Z,27.33
2022-08-17T11:13:14.862Z,25.79
2022-08-17T11:16:32.545Z,25.57
2022-08-17T11:19:44.364Z,25.17
2022-08-17T11:22:35.572Z,25.25
2022-08-17T11:25:18.912Z,24.47
2022-08-17T11:27:53.431Z,24.96
2022-08-17T11:30:48.594Z,25.49
2022-08-17T11:33:38.117Z,25.30
2022-08-17T11:36:45.764Z,21.85
2022-08-17T11:39:43.923Z,25.53
2022-08-17T11:42:37.466Z,23.74
2022-08-17T11:45:41.096Z,22.10
2022-08-17T11:48:38.816Z,24.14
2022-08-17T11:51:33.743Z,22.38
2022-08-17T11:54:31.047Z,21.99
2022-08-17T11:56:50.987Z,21.50
2022-08-17T11:59:32.634Z,23.02
2022-08-17T12:02:31.613Z,21.98
2022-08-17T12:05:17.224Z,23.56
2022-08-17T12:07:48.781Z,21.29
2022-08-17T12:10:19.263Z,21.10
2022-08-17T12:12:56.170Z,20.37
2022-08-17T12:15:31.229Z,19.70
2022-08-17T12:17:58.246Z,23.16
2022-08-17T12:20:35.392Z,22.11
2022-08-17T12:23:25.531Z,21.47
2022-08-17T12:26:17.245Z,22.41
2022-08-17T12:28:47.335Z,23.01
2022-08-17T12:31:20.337Z,23.82
2022-08-17T12:33:47.899Z,24.45
2022-08-17T12:36:18.561Z,24.49
2022-08-17T12:38:57.181Z,23.79
2022-08-17T12:41:34.634Z,24.78
2022-08-17T12:44:15.366Z,25.63
2022-08-17T12:46:46.346Z,28.18
2022-08-17T12:49:24.587Z,27.68
2022-08-17T12:51:55.977Z,28.61
2022-08-17T12:54:31.371Z,29.49
2022-08-17T12:57:05.418Z,30.62
2022-08-17T12:59:33.089Z,32.30
2022-08-17T13:02:00.559Z,31.29
2022-08-17T13:04:29.631Z,29.35
2022-08-17T13:06:59.721Z,33.15
2022-08-17T13:09:35.363Z,28.52
2022-08-17T13:12:06.841Z,30.52
2022-08-17T13:14:34.193Z,31.85
2022-08-17T13:17:02.268Z,33.30
2022-08-17T13:19:40.570Z,32.73
2022-08-17T13:22:11.617Z,32.51
2022-08-17T13:24:38.759Z,30.87
2022-08-17T13:27:09.564Z,32.35
2022-08-17T13:29:51.358Z,33.12
2022-08-17T13:32:23.075Z,31.48
2022-08-17T13:35:12.415Z,31.81
2022-08-17T13:38:04.393Z,32.47
2022-08-17T13:40:44.989Z,32.30
2022-08-17T13:43:11.907Z,36.13
2022-08-17T13:45:45.980Z,34.09
2022-08-17T13:48:27.372Z,34.97
2022-08-17T13:50:56.824Z,35.99
2022-08-17T13:53:40.139Z,38.89
2022-08-17T13:56:33.221Z,33.57
2022-08-17T13:59:05.103Z,33.54
2022-08-17T14:01:53.934Z,32.59
2022-08-17T14:04:29.906Z,34.87
2022-08-17T14:07:08.509Z,32.50
2022-08-17T14:09:37.806Z,32.37
2022-08-17T14:12:08.802Z,31.78
2022-08-17T14:14:35.280Z,35.89
2022-08-17T14:17:01.968Z,39.71
2022-08-17T14:19:28.425Z,35.98
2022-08-17T14:21:58.804Z,37.66
2022-08-17T14:24:35.074Z,38.09
2022-08-17T14:27:04.618Z,42.27
2022-08-17T14:29:34.209Z,37.01
2022-08-17T14:32:05.289Z,38.67
2022-08-17T14:34:31.684Z,40.19
2022-08-17T14:36:58.609Z,39.10
2022-08-17T14:39:25.241Z,38.29
2022-08-17T14:41:52.936Z,36.26
2022-08-17T14:44:19.389Z,40.37
2022-08-17T14:46:45.829Z,39.90
2022-08-17T14:49:13.114Z,44.53
2022-08-17T14:51:43.511Z,36.45
2022-08-17T14:54:10.834Z,39.49
2022-08-17T14:56:38.567Z,42.93
2022-08-17T14:59:04.999Z,39.78
2022-08-17T15:01:31.630Z,39.45
2022-08-17T15:03:58.064Z,44.04
2022-08-17T15:06:24.757Z,42.93
2022-08-17T15:08:51.458Z,41.09
2022-08-17T15:11:18.034Z,39.26
2022-08-17T15:13:52.189Z,41.53
2022-08-17T15:16:19.989Z,44.34
2022-08-17T15:18:46.404Z,45.04
2022-08-17T15:21:14.778Z,45.25
2022-08-17T15:23:41.222Z,44.30
2022-08-17T15:26:10.865Z,42.73
2022-08-17T15:28:37.769Z,45.20
2022-08-17T15:31:05.694Z,43.70
2022-08-17T15:33:32.308Z,43.73
2022-08-17T15:36:06.365Z,44.60
2022-08-17T15:38:36.568Z,47.10
2022-08-17T15:41:03.532Z,41.78
2022-08-17T15:43:33.744Z,42.83
2022-08-17T15:46:07.789Z,44.00
2022-08-17T15:48:41.643Z,45.47
2022-08-17T15:51:15.737Z,45.11
2022-08-17T15:53:44.840Z,44.59
2022-08-17T15:56:13.582Z,43.94
2022-08-17T15:58:42.208Z,39.45
2022-08-17T16:01:14.985Z,42.08
2022-08-17T16:04:05.111Z,42.19
2022-08-17T16:06:33.299Z,43.38
2022-08-17T16:09:00.381Z,43.76
2022-08-17T16:11:26.980Z,42.89
2022-08-17T16:13:55.057Z,45.39
2022-08-17T16:16:23.630Z,40.45
2022-08-17T16:18:53.647Z,40.35
2022-08-17T16:21:25.859Z,44.40
2022-08-17T16:23:58.730Z,45.09
2022-08-17T16:26:26.276Z,47.85
2022-08-17T16:28:53.439Z,46.81
2022-08-17T16:31:20.093Z,48.31
2022-08-17T16:34:15.599Z,48.17
2022-08-17T16:36:34.377Z,49.99
2022-08-17T16:39:01.359Z,49.63
2022-08-17T16:41:43.245Z,52.47
2022-08-17T16:44:09.792Z,51.34
2022-08-17T16:46:45.537Z,52.79
2022-08-17T16:49:27.593Z,54.33
2022-08-17T16:52:01.669Z,55.88
2022-08-17T16:54:28.097Z,57.16
2022-08-17T16:56:54.522Z,57.54
2022-08-17T16:59:30.795Z,59.99
2022-08-17T17:02:04.420Z,60.25
2022-08-17T17:04:34.985Z,58.85
2022-08-17T17:07:36.634Z,58.31
2022-08-17T17:10:11.028Z,58.27
2022-08-17T17:13:02.441Z,59.07
2022-08-17T17:15:29.996Z,60.25
2022-08-17T17:18:06.900Z,61.05
2022-08-17T17:20:47.650Z,62.17
2022-08-17T17:23:44.870Z,61.69
2022-08-17T17:26:17.185Z,61.37
2022-08-17T17:29:09.161Z,62.68
2022-08-17T17:31:43.549Z,62.81
2022-08-17T17:34:15.807Z,63.94
2022-08-17T17:36:53.824Z,63.70
2022-08-17T17:39:36.318Z,64.62
2022-08-17T17:42:08.214Z,64.20
2022-08-17T17:44:41.744Z,64.17
2022-08-17T17:47:08.192Z,64.82
2022-08-17T17:49:38.969Z,63.90
2022-08-17T17:52:32.755Z,65.45
2022-08-17T17:55:01.936Z,65.69
2022-08-17T17:58:06.262Z,66.25
2022-08-17T18:00:40.331Z,66.03
2022-08-17T18:03:50.402Z,65.61
2022-08-17T18:06:45.587Z,65.72
2022-08-17T18:09:27.702Z,67.01
2022-08-17T18:12:10.183Z,66.27
2022-08-17T18:14:58.430Z,66.97
2022-08-17T18:17:24.802Z,68.36
2022-08-17T18:19:55.284Z,67.90
2022-08-17T18:22:23.143Z,68.92
2022-08-17T18:24:58.711Z,68.55
2022-08-17T18:27:39.029Z,67.68
2022-08-17T18:30:14.591Z,68.18
2022-08-17T18:32:46.214Z,67.44
2022-08-17T18:35:14.124Z,69.28
2022-08-17T18:37:49.511Z,68.49
2022-08-17T18:40:23.315Z,68.73
2022-08-17T18:43:02.962Z,67.73
2022-08-17T18:45:41.043Z,69.34
2022-08-17T18:48:21.443Z,69.47
2022-08-17T18:50:48.070Z,69.67
2022-08-17T18:53:33.411Z,71.06
2022-08-17T18:56:37.074Z,69.76
2022-08-17T18:59:05.494Z,69.48
2022-08-17T19:01:46.992Z,69.06
2022-08-17T19:04:34.696Z,69.75
2022-08-17T19:07:16.556Z,69.92
2022-08-17T19:09:47.540Z,70.86
2022-08-17T19:12:27.623Z,70.60
2022-08-17T19:14:56.474Z,71.32
2022-08-17T19:17:30.126Z,70.34
2022-08-17T19:20:05.002Z,69.66
2022-08-17T19:23:05.106Z,70.02
2022-08-17T19:25:36.028Z,71.14
2022-08-17T19:28:21.853Z,70.79
2022-08-17T19:30:54.729Z,70.84
2022-08-17T19:33:21.273Z,71.80
2022-08-17T19:35:58.924Z,71.18
2022-08-17T19:38:36.684Z,69.62
2022-08-17T19:41:06.045Z,69.63
2022-08-17T19:43:41.717Z,67.48
2022-08-17T19:46:25.870Z,66.94
2022-08-17T19:49:05.154Z,67.09
2022-08-17T19:51:37.307Z,67.47
2022-08-17T19:54:07.060Z,64.63
2022-08-17T19:56:48.854Z,63.80
2022-08-17T19:59:48.927Z,63.03
2022-08-17T20:02:27.994Z,63.79
2022-08-17T20:04:58.860Z,63.60
2022-08-17T20:08:00.609Z,65.17
2022-08-17T20:10:47.353Z,63.54
2022-08-17T20:13:41.210Z,63.95
2022-08-17T20:16:09.022Z,64.72
2022-08-17T20:18:49.080Z,64.29
2022-08-17T20:21:39.095Z,64.36
2022-08-17T20:24:25.637Z,64.27
2022-08-17T20:26:59.637Z,64.91
2022-08-17T20:29:51.468Z,66.56
2022-08-17T20:32:24.019Z,65.39
2022-08-17T20:35:04.234Z,65.26
2022-08-17T20:37:33.949Z,66.00
2022-08-17T20:40:00.382Z,65.83
2022-08-17T20:42:27.799Z,66.20
2022-08-17T20:45:01.828Z,66.96
2022-08-17T20:48:15.173Z,67.26
2022-08-17T20:50:43.476Z,67.21
2022-08-17T20:53:13.470Z,67.31
2022-08-17T20:55:52.197Z,67.66
2022-08-17T20:58:25.213Z,68.17
2022-08-17T21:00:57.491Z,68.55
2022-08-17T21:03:23.995Z,68.56
2022-08-17T21:05:59.860Z,69.51
2022-08-17T21:08:45.715Z,69.18
2022-08-17T21:11:56.870Z,69.58
2022-08-17T21:14:57.926Z,69.78
2022-08-17T21:17:38.033Z,69.97
2022-08-17T21:20:14.364Z,69.96
2022-08-17T21:22:50.475Z,70.94
2022-08-17T21:25:48.180Z,70.70
2022-08-17T21:28:35.732Z,71.03
2022-08-17T21:31:08.493Z,71.03
2022-08-17T21:33:38.546Z,71.01
2022-08-17T21:36:11.550Z,71.04
2022-08-17T21:38:51.532Z,71.59
2022-08-17T21:41:27.320Z,71.94
2022-08-17T21:44:16.317Z,71.75
2022-08-17T21:46:46.602Z,72.40
2022-08-17T21:49:17.715Z,72.12
2022-08-17T21:51:53.746Z,72.44
2022-08-17T21:54:30.826Z,72.27
2022-08-17T21:57:00.100Z,72.71
2022-08-17T21:59:36.596Z,72.61
2022-08-17T22:02:09.066Z,72.98
2022-08-17T22:04:41.192Z,72.95
2022-08-17T22:07:13.189Z,73.80
2022-08-17T22:09:48.230Z,73.24
2022-08-17T22:12:18.855Z,73.89
2022-08-17T22:14:57.021Z,74.03
2022-08-17T22:17:27.632Z,73.68
2022-08-17T22:20:01.508Z,73.56
2022-08-17T22:22:55.655Z,74.18
2022-08-17T22:25:23.643Z,74.10
2022-08-17T22:27:54.217Z,74.01
2022-08-17T22:30:37.834Z,74.14
2022-08-17T22:33:33.536Z,74.36
2022-08-17T22:36:25.958Z,74.48
2022-08-17T22:39:00.905Z,74.51
2022-08-17T22:41:47.979Z,74.71
2022-08-17T22:44:29.518Z,75.20
2022-08-17T22:47:01.074Z,74.87
2022-08-17T22:49:34.114Z,75.31
2022-08-17T22:52:11.788Z,75.08
2022-08-17T22:54:56.947Z,75.30
2022-08-17T22:57:42.640Z,75.10
2022-08-17T23:00:37.702Z,75.37
2022-08-17T23:03:25.303Z,75.25
2022-08-17T23:06:10.407Z,75.33
2022-08-17T23:08:58.977Z,75.86
2022-08-17T23:11:43.031Z,75.13
2022-08-17T23:14:15.759Z,75.44
2022-08-17T23:16:42.838Z,75.39
2022-08-17T23:19:11.416Z,75.14
2022-08-17T23:21:38.477Z,75.99
2022-08-17T23:24:08.741Z,75.15
2022-08-17T23:26:40.699Z,75.37
2022-08-17T23:29:07.649Z,75.01
2022-08-17T23:31:38.504Z,75.63
2022-08-17T23:34:09.319Z,75.79
2022-08-17T23:36:36.011Z,75.32
2022-08-17T23:39:03.826Z,75.06
2022-08-17T23:41:38.331Z,75.41
2022-08-17T23:44:06.278Z,76.36
2022-08-17T23:46:32.861Z,75.53
2022-08-17T23:48:59.524Z,75.50
2022-08-17T23:51:34.026Z,76.13
2022-08-17T23:54:23.777Z,76.03
2022-08-17T23:56:50.818Z,76.34
2022-08-17T23:59:19.664Z,76.60
